KCVO - Corvallis Muni A, Oregon
Updated: Tue, 12-Nov-2019 4:56pm PST
NOT Current
Overcast
Overcast
 Wind from calm
Wind: Calm
Temperature: 54°F , 12°C
Dew Point: 48°F , 9°C
Humidity: 82%
Barometer: 30.15 inHg , 1021 hPa
Clouds: Overcast
Visibility: 10 miles , 16 km
Cloud details: Overcast 3400 ft
2019/11/13 00:56 KCVO 130056Z AUTO 00000KT 10SM OVC034 12/09 A3015 RMK AO2 SLP213 T01170094